South Brunswick, North Carolina
Current Conditions -  °F | °C
As of 12:35 AM on Saturday 20 Dec 2014 (Local Time) from KSUT Reporting Station
Clear Clear  
Wind Chill: 43°   Ceiling: Unl
Heat Index: 45°   Visibility: 10mi
Dew Point: 39°   Wind: 5mph
Humidity: 80%   Direction: 10°N
Pressure: 30.2"   Gusts: NA
Location:  33.95°N, 78.38°W
Report Text: KSUT 200535Z AUTO 01004KT 10SM CLR 07/04 A3020 RMK AO2 T00730041
Loading
Personal Weather Stations






























Interactive Weather Map New forecast layout! Learn more

10-Day Weather Forecast

Advertisements
Track Severe Weather on mobile